createdAt,value
2016-06-11T00:00:10.214Z,0
2016-06-11T00:01:10.217Z,0
2016-06-11T00:02:10.142Z,0
2016-06-11T00:03:10.363Z,0
2016-06-11T00:04:10.366Z,0
2016-06-11T00:05:10.432Z,0
2016-06-11T00:06:10.497Z,0
2016-06-11T00:07:10.517Z,0
2016-06-11T00:08:10.566Z,0
2016-06-11T00:09:10.632Z,0
2016-06-11T00:10:10.681Z,0
2016-06-11T00:11:10.762Z,0
2016-06-11T00:12:10.751Z,0
2016-06-11T00:13:10.816Z,0
2016-06-11T00:14:10.913Z,0
2016-06-11T00:15:10.916Z,0
2016-06-11T00:16:10.793Z,0
2016-06-11T00:17:11.031Z,0
2016-06-11T00:18:11.066Z,0
2016-06-11T00:19:11.084Z,0
2016-06-11T00:20:11.181Z,0
2016-06-11T00:21:11.215Z,0
2016-06-11T00:22:11.251Z,0
2016-06-11T00:23:11.299Z,0
2016-06-11T00:24:11.334Z,0
2016-06-11T00:25:11.260Z,0
2016-06-11T00:26:11.450Z,0
2016-06-11T00:27:11.469Z,0
2016-06-11T00:28:11.581Z,0
2016-06-11T00:29:12.256Z,0
2016-06-11T00:30:11.618Z,0
2016-06-11T00:31:11.699Z,0
2016-06-11T00:32:11.749Z,0
2016-06-11T00:33:11.768Z,0
2016-06-11T00:34:11.677Z,0
2016-06-11T00:35:11.899Z,0
2016-06-11T00:36:11.903Z,0
2016-06-11T00:37:11.967Z,0
2016-06-11T00:38:11.878Z,0
2016-06-11T00:39:12.052Z,0
2016-06-11T00:40:12.102Z,0
2016-06-11T00:41:12.184Z,0
2016-06-11T00:42:12.202Z,0
2016-06-11T00:43:12.252Z,0
2016-06-11T00:44:12.724Z,0
2016-06-11T00:45:12.367Z,0
2016-06-11T00:46:12.386Z,0
2016-06-11T00:47:12.468Z,0
2016-06-11T00:48:12.501Z,0
2016-06-11T00:49:12.411Z,0
2016-06-11T00:50:12.587Z,0
2016-06-11T00:51:12.621Z,0
2016-06-11T00:52:12.701Z,0
2016-06-11T00:53:12.783Z,0
2016-06-11T00:54:12.770Z,0
2016-06-11T00:55:12.852Z,0
2016-06-11T00:56:12.901Z,0
2016-06-11T00:57:12.919Z,0
2016-06-11T00:58:13.001Z,0
2016-06-11T00:59:13.754Z,0
2016-06-11T01:00:13.663Z,0
2016-06-11T01:01:13.120Z,0
2016-06-11T01:02:13.029Z,0
2016-06-11T01:03:13.266Z,0
2016-06-11T01:04:13.348Z,0
2016-06-11T01:05:13.288Z,0
2016-06-11T01:06:13.386Z,0
2016-06-11T01:07:13.434Z,0
2016-06-11T01:08:13.501Z,0
2016-06-11T01:09:13.535Z,0
2016-06-11T01:10:13.585Z,0
2016-06-11T01:11:13.604Z,0
2016-06-11T01:12:13.497Z,0
2016-06-11T01:13:13.719Z,0
2016-06-11T01:14:13.597Z,0
2016-06-11T01:15:13.834Z,0
2016-06-11T01:16:13.822Z,0
2016-06-11T01:17:13.888Z,0
2016-06-11T01:18:13.969Z,0
2016-06-11T01:19:13.987Z,0
2016-06-11T01:20:14.022Z,0
2016-06-11T01:21:14.166Z,0
2016-06-11T01:22:14.137Z,0
2016-06-11T01:23:14.156Z,0
2016-06-11T01:24:14.268Z,0
2016-06-11T01:25:14.287Z,0
2016-06-11T01:26:13.993Z,0
2016-06-11T01:27:14.387Z,0
2016-06-11T01:28:14.453Z,0
2016-06-11T01:29:14.471Z,0
2016-06-11T01:30:15.022Z,0
2016-06-11T01:31:14.587Z,0
2016-06-11T01:32:14.606Z,0
2016-06-11T01:33:14.655Z,0
2016-06-11T01:34:14.736Z,0
2016-06-11T01:35:14.803Z,0
2016-06-11T01:36:14.868Z,0
2016-06-11T01:37:14.871Z,0
2016-06-11T01:38:14.905Z,0
2016-06-11T01:39:15.002Z,0
2016-06-11T01:40:15.052Z,0
2016-06-11T01:41:15.040Z,0
2016-06-11T01:42:15.121Z,0
2016-06-11T01:43:15.170Z,0
2016-06-11T01:44:15.846Z,0
2016-06-11T01:45:16.020Z,0
2016-06-11T01:46:15.290Z,0
2016-06-11T01:47:15.354Z,0
2016-06-11T01:48:15.389Z,0
2016-06-11T01:49:15.439Z,0
2016-06-11T01:50:15.505Z,0
2016-06-11T01:51:15.569Z,0
2016-06-11T01:52:15.417Z,0
2016-06-11T01:53:15.717Z,0
2016-06-11T01:54:15.673Z,0
2016-06-11T01:55:15.707Z,0
2016-06-11T01:56:15.804Z,0
2016-06-11T01:57:15.823Z,0
2016-06-11T01:58:15.857Z,0
2016-06-11T01:59:16.673Z,0
2016-06-11T02:00:16.973Z,0
2016-06-11T02:01:15.991Z,0
2016-06-11T02:02:16.073Z,0
2016-06-11T02:03:16.123Z,0
2016-06-11T02:04:16.142Z,0
2016-06-11T02:05:16.207Z,0
2016-06-11T02:06:16.241Z,0
2016-06-11T02:07:16.307Z,0
2016-06-11T02:08:16.357Z,0
2016-06-11T02:09:16.376Z,0
2016-06-11T02:10:16.317Z,0
2016-06-11T02:11:16.506Z,0
2016-06-11T02:12:16.526Z,0
2016-06-11T02:13:16.607Z,0
2016-06-11T02:14:16.813Z,0
2016-06-11T02:15:16.378Z,0
2016-06-11T02:16:16.726Z,0
2016-06-11T02:17:16.807Z,0
2016-06-11T02:18:16.825Z,0
2016-06-11T02:19:16.688Z,0
2016-06-11T02:20:17.003Z,0
2016-06-11T02:21:16.991Z,0
2016-06-11T02:22:17.009Z,0
2016-06-11T02:23:17.076Z,0
2016-06-11T02:24:17.156Z,0
2016-06-11T02:25:17.143Z,0
2016-06-11T02:26:17.210Z,0
2016-06-11T02:27:17.275Z,0
2016-06-11T02:28:17.277Z,0
2016-06-11T02:29:18.172Z,0
2016-06-11T02:30:18.705Z,0
2016-06-11T02:31:17.475Z,0
2016-06-11T02:32:17.509Z,0
2016-06-11T02:33:17.528Z,0
2016-06-11T02:34:17.593Z,0
2016-06-11T02:35:17.659Z,0
2016-06-11T02:36:17.677Z,0
2016-06-11T02:37:17.727Z,0
2016-06-11T02:38:17.809Z,0
2016-06-11T02:39:17.811Z,0
2016-06-11T02:40:17.861Z,0
2016-06-11T02:41:17.958Z,0
2016-06-11T02:42:17.977Z,0
2016-06-11T02:43:18.027Z,0
2016-06-11T02:44:18.640Z,0
2016-06-11T02:45:18.548Z,0
2016-06-11T02:46:18.193Z,0
2016-06-11T02:47:18.211Z,0
2016-06-11T02:48:18.245Z,0
2016-06-11T02:49:18.327Z,0
2016-06-11T02:50:18.376Z,0
2016-06-11T02:51:18.379Z,0
2016-06-11T02:52:18.462Z,0
2016-06-11T02:53:18.557Z,0
2016-06-11T02:54:18.529Z,0
2016-06-11T02:55:18.611Z,0
2016-06-11T02:56:18.630Z,0
2016-06-11T02:57:18.726Z,0
2016-06-11T02:58:18.730Z,0
2016-06-11T02:59:18.545Z,0
2016-06-11T03:00:19.861Z,0
2016-06-11T03:01:18.879Z,0
2016-06-11T03:02:18.930Z,0
2016-06-11T03:03:18.979Z,0
2016-06-11T03:04:19.029Z,0
2016-06-11T03:05:19.048Z,0
2016-06-11T03:06:18.957Z,0
2016-06-11T03:07:19.178Z,0
2016-06-11T03:08:19.182Z,0
2016-06-11T03:09:19.264Z,0
2016-06-11T03:10:19.282Z,0
2016-06-11T03:11:19.362Z,0
2016-06-11T03:12:19.397Z,0
2016-06-11T03:13:19.432Z,0
2016-06-11T03:14:19.357Z,0
2016-06-11T03:15:20.063Z,5
2016-06-11T03:16:19.597Z,5
2016-06-11T03:17:19.631Z,5
2016-06-11T03:18:19.697Z,5
2016-06-11T03:19:19.716Z,5
2016-06-11T03:20:19.765Z,5
2016-06-11T03:21:19.815Z,5
2016-06-11T03:22:19.882Z,5
2016-06-11T03:23:19.791Z,5
2016-06-11T03:24:19.934Z,5
2016-06-11T03:25:20.000Z,5
2016-06-11T03:26:20.081Z,5
2016-06-11T03:27:20.100Z,5
2016-06-11T03:28:20.134Z,5
2016-06-11T03:29:20.059Z,5
2016-06-11T03:30:20.640Z,5
2016-06-11T03:31:20.268Z,5
2016-06-11T03:32:20.365Z,5
2016-06-11T03:33:20.400Z,10
2016-06-11T03:34:20.294Z,10
2016-06-11T03:35:20.483Z,10
2016-06-11T03:36:20.362Z,10
2016-06-11T03:37:20.600Z,10
2016-06-11T03:38:20.617Z,10
2016-06-11T03:39:20.652Z,10
2016-06-11T03:40:20.734Z,10
2016-06-11T03:41:20.768Z,10
2016-06-11T03:42:20.802Z,10
2016-06-11T03:43:20.868Z,10
2016-06-11T03:44:20.933Z,10
2016-06-11T03:45:21.889Z,15
2016-06-11T03:46:21.002Z,15
2016-06-11T03:47:21.037Z,15
2016-06-11T03:48:21.118Z,15
2016-06-11T03:49:21.152Z,15
2016-06-11T03:50:21.170Z,15
2016-06-11T03:51:21.096Z,15
2016-06-11T03:52:21.286Z,15
2016-06-11T03:53:21.352Z,15
2016-06-11T03:54:21.386Z,20
2016-06-11T03:55:21.451Z,20
2016-06-11T03:56:21.439Z,20
2016-06-11T03:57:21.504Z,20
2016-06-11T03:58:21.430Z,20
2016-06-11T03:59:21.588Z,20
2016-06-11T04:00:22.498Z,25
2016-06-11T04:01:21.563Z,25
2016-06-11T04:02:21.754Z,25
2016-06-11T04:03:21.788Z,25
2016-06-11T04:04:21.853Z,25
2016-06-11T04:05:21.904Z,25
2016-06-11T04:06:21.923Z,25
2016-06-11T04:07:21.987Z,30
2016-06-11T04:08:22.054Z,30
2016-06-11T04:09:22.073Z,30
2016-06-11T04:10:22.154Z,30
2016-06-11T04:11:22.204Z,30
2016-06-11T04:12:22.207Z,30
2016-06-11T04:13:22.288Z,35
2016-06-11T04:14:22.292Z,35
2016-06-11T04:15:22.700Z,35
2016-06-11T04:16:22.265Z,35
2016-06-11T04:17:22.441Z,35
2016-06-11T04:18:22.506Z,35
2016-06-11T04:19:22.571Z,40
2016-06-11T04:20:22.575Z,40
2016-06-11T04:21:22.485Z,40
2016-06-11T04:22:22.706Z,40
2016-06-11T04:23:22.725Z,40
2016-06-11T04:24:22.635Z,40
2016-06-11T04:25:22.840Z,40
2016-06-11T04:26:22.875Z,40
2016-06-11T04:27:22.956Z,40
2016-06-11T04:28:22.960Z,45
2016-06-11T04:29:23.009Z,45
2016-06-11T04:30:23.169Z,45
2016-06-11T04:31:23.109Z,45
2016-06-11T04:32:23.019Z,45
2016-06-11T04:33:23.240Z,45
2016-06-11T04:34:23.103Z,45
2016-06-11T04:35:23.121Z,45
2016-06-11T04:36:23.390Z,45
2016-06-11T04:37:23.409Z,45
2016-06-11T04:38:23.443Z,45
2016-06-11T04:39:23.336Z,50
2016-06-11T04:40:23.527Z,50
2016-06-11T04:41:23.609Z,50
2016-06-11T04:42:23.642Z,50
2016-06-11T04:43:23.661Z,50
2016-06-11T04:44:23.743Z,50
2016-06-11T04:45:24.808Z,50
2016-06-11T04:46:23.811Z,55
2016-06-11T04:47:23.877Z,55
2016-06-11T04:48:23.927Z,55
2016-06-11T04:49:23.946Z,55
2016-06-11T04:50:24.011Z,55
2016-06-11T04:51:24.045Z,55
2016-06-11T04:52:24.126Z,60
2016-06-11T04:53:24.224Z,60
2016-06-11T04:54:24.179Z,60
2016-06-11T04:55:24.260Z,60
2016-06-11T04:56:24.310Z,65
2016-06-11T04:57:24.329Z,65
2016-06-11T04:58:24.239Z,65
2016-06-11T04:59:24.477Z,65
2016-06-11T05:00:24.666Z,65
2016-06-11T05:01:24.529Z,70
2016-06-11T05:02:24.611Z,70
2016-06-11T05:03:24.614Z,70
2016-06-11T05:04:24.695Z,75
2016-06-11T05:05:24.713Z,75
2016-06-11T05:06:24.779Z,80
2016-06-11T05:07:24.845Z,80
2016-06-11T05:08:24.863Z,85
2016-06-11T05:09:24.758Z,85
2016-06-11T05:10:24.994Z,90
2016-06-11T05:11:24.857Z,90
2016-06-11T05:12:25.048Z,95
2016-06-11T05:13:24.972Z,95
2016-06-11T05:14:25.163Z,100
2016-06-11T05:15:25.869Z,100
2016-06-11T05:16:25.279Z,100
2016-06-11T05:17:25.297Z,105
2016-06-11T05:18:25.378Z,105
2016-06-11T05:19:25.398Z,105
2016-06-11T05:20:25.432Z,110
2016-06-11T05:21:25.528Z,110
2016-06-11T05:22:25.562Z,110
2016-06-11T05:23:25.582Z,110
2016-06-11T05:24:25.662Z,110
2016-06-11T05:25:25.697Z,110
2016-06-11T05:26:25.716Z,110
2016-06-11T05:27:25.796Z,110
2016-06-11T05:28:25.831Z,110
2016-06-11T05:29:25.865Z,110
2016-06-11T05:30:26.040Z,115
2016-06-11T05:31:25.965Z,115
2016-06-11T05:32:25.890Z,115
2016-06-11T05:33:26.081Z,115
2016-06-11T05:34:26.099Z,115
2016-06-11T05:35:26.181Z,115
2016-06-11T05:36:26.230Z,115
2016-06-11T05:37:26.093Z,115
2016-06-11T05:38:26.315Z,120
2016-06-11T05:39:26.395Z,120
2016-06-11T05:40:26.367Z,125
2016-06-11T05:41:26.449Z,125
2016-06-11T05:42:26.530Z,125
2016-06-11T05:43:26.533Z,130
2016-06-11T05:44:26.599Z,130
2016-06-11T05:45:26.775Z,135
2016-06-11T05:46:26.683Z,135
2016-06-11T05:47:26.733Z,140
2016-06-11T05:48:26.814Z,140
2016-06-11T05:49:26.849Z,140
2016-06-11T05:50:26.867Z,145
2016-06-11T05:51:26.948Z,145
2016-06-11T05:52:26.999Z,145
2016-06-11T05:53:27.080Z,150
2016-06-11T05:54:27.083Z,150
2016-06-11T05:55:27.116Z,150
2016-06-11T05:56:27.076Z,155
2016-06-11T05:57:27.309Z,155
2016-06-11T05:58:27.383Z,160
2016-06-11T05:59:27.488Z,160
2016-06-11T06:00:28.018Z,160
2016-06-11T06:01:28.039Z,160
2016-06-11T06:02:27.713Z,165
2016-06-11T06:03:27.793Z,165
2016-06-11T06:04:27.654Z,165
2016-06-11T06:05:27.875Z,165
2016-06-11T06:06:27.964Z,165
2016-06-11T06:07:27.987Z,165
2016-06-11T06:08:28.059Z,165
2016-06-11T06:09:28.082Z,160
2016-06-11T06:10:28.013Z,160
2016-06-11T06:11:28.221Z,160
2016-06-11T06:12:28.226Z,155
2016-06-11T06:13:28.309Z,155
2016-06-11T06:14:28.377Z,155
2016-06-11T06:15:28.319Z,150
2016-06-11T06:16:29.120Z,150
2016-06-11T06:17:28.531Z,150
2016-06-11T06:18:28.565Z,150
2016-06-11T06:19:28.584Z,145
2016-06-11T06:20:28.667Z,145
2016-06-11T06:21:28.717Z,145
2016-06-11T06:22:28.783Z,145
2016-06-11T06:23:28.786Z,145
2016-06-11T06:24:28.850Z,145
2016-06-11T06:25:28.917Z,145
2016-06-11T06:26:28.951Z,145
2016-06-11T06:27:28.985Z,145
2016-06-11T06:28:29.051Z,145
2016-06-11T06:29:28.945Z,145
2016-06-11T06:30:28.963Z,145
2016-06-11T06:31:29.232Z,145
2016-06-11T06:32:29.267Z,145
2016-06-11T06:33:29.285Z,145
2016-06-11T06:34:29.319Z,145
2016-06-11T06:35:29.370Z,145
2016-06-11T06:36:29.295Z,150
2016-06-11T06:37:29.531Z,150
2016-06-11T06:38:29.363Z,150
2016-06-11T06:39:29.585Z,150
2016-06-11T06:40:29.650Z,150
2016-06-11T06:41:29.653Z,150
2016-06-11T06:42:29.720Z,155
2016-06-11T06:43:29.628Z,155
2016-06-11T06:44:29.787Z,155
2016-06-11T06:45:29.790Z,160
2016-06-11T06:46:29.763Z,160
2016-06-11T06:47:29.969Z,165
2016-06-11T06:48:30.018Z,165
2016-06-11T06:49:29.881Z,170
2016-06-11T06:50:30.119Z,170
2016-06-11T06:51:30.184Z,175
2016-06-11T06:52:30.186Z,180
2016-06-11T06:53:30.144Z,180
2016-06-11T06:54:30.318Z,185
2016-06-11T06:55:30.337Z,185
2016-06-11T06:56:30.387Z,185
2016-06-11T06:57:30.469Z,190
2016-06-11T06:58:30.487Z,195
2016-06-11T06:59:30.568Z,195
2016-06-11T07:00:31.650Z,200
2016-06-11T07:01:31.043Z,205
2016-06-11T07:02:30.703Z,210
2016-06-11T07:03:30.720Z,215
2016-06-11T07:04:30.615Z,215
2016-06-11T07:05:30.868Z,220
2016-06-11T07:06:30.887Z,225
2016-06-11T07:07:30.921Z,230
2016-06-11T07:08:30.986Z,230
2016-06-11T07:09:31.036Z,235
2016-06-11T07:10:31.055Z,240
2016-06-11T07:11:31.136Z,240
2016-06-11T07:12:31.170Z,240
2016-06-11T07:13:31.236Z,245
2016-06-11T07:14:31.115Z,245
2016-06-11T07:15:31.679Z,245
2016-06-11T07:16:31.854Z,245
2016-06-11T07:17:31.280Z,245
2016-06-11T07:18:31.439Z,245
2016-06-11T07:19:31.535Z,250
2016-06-11T07:20:31.586Z,250
2016-06-11T07:21:31.589Z,250
2016-06-11T07:22:31.670Z,255
2016-06-11T07:23:31.736Z,255
2016-06-11T07:24:31.754Z,260
2016-06-11T07:25:31.788Z,260
2016-06-11T07:26:31.885Z,265
2016-06-11T07:27:31.904Z,265
2016-06-11T07:28:31.955Z,265
2016-06-11T07:29:32.036Z,265
2016-06-11T07:30:33.178Z,270
2016-06-11T07:31:32.620Z,270
2016-06-11T07:32:32.169Z,270
2016-06-11T07:33:32.204Z,275
2016-06-11T07:34:32.238Z,275
2016-06-11T07:35:32.304Z,280
2016-06-11T07:36:32.369Z,280
2016-06-11T07:37:32.247Z,285
2016-06-11T07:38:32.453Z,285
2016-06-11T07:39:32.473Z,290
2016-06-11T07:40:32.569Z,290
2016-06-11T07:41:32.603Z,295
2016-06-11T07:42:32.623Z,300
2016-06-11T07:43:32.563Z,300
2016-06-11T07:44:32.753Z,305
2016-06-11T07:45:33.116Z,305
2016-06-11T07:46:33.307Z,305
2016-06-11T07:47:32.763Z,310
2016-06-11T07:48:32.922Z,310
2016-06-11T07:49:32.831Z,310
2016-06-11T07:50:33.037Z,315
2016-06-11T07:51:33.103Z,315
2016-06-11T07:52:33.153Z,315
2016-06-11T07:53:33.235Z,315
2016-06-11T07:54:33.238Z,315
2016-06-11T07:55:33.162Z,315
2016-06-11T07:56:33.321Z,315
2016-06-11T07:57:33.247Z,310
2016-06-11T07:58:33.453Z,310
2016-06-11T07:59:33.159Z,310
2016-06-11T08:00:34.881Z,310
2016-06-11T08:01:33.649Z,310
2016-06-11T08:02:33.652Z,310
2016-06-11T08:03:33.702Z,315
2016-06-11T08:04:33.721Z,315
2016-06-11T08:05:33.772Z,315
2016-06-11T08:06:33.852Z,315
2016-06-11T08:07:33.872Z,315
2016-06-11T08:08:33.920Z,315
2016-06-11T08:09:34.002Z,315
2016-06-11T08:10:34.020Z,315
2016-06-11T08:11:34.071Z,315
2016-06-11T08:12:34.152Z,315
2016-06-11T08:13:34.185Z,315
2016-06-11T08:14:34.221Z,315
2016-06-11T08:15:34.239Z,320
2016-06-11T08:16:34.336Z,315
2016-06-11T08:17:34.402Z,310
2016-06-11T08:18:34.437Z,310
2016-06-11T08:19:34.470Z,310
2016-06-11T08:20:34.551Z,305
2016-06-11T08:21:34.601Z,305
2016-06-11T08:22:34.621Z,305
2016-06-11T08:23:34.702Z,305
2016-06-11T08:24:34.752Z,300
2016-06-11T08:25:34.755Z,300
2016-06-11T08:26:34.680Z,300
2016-06-11T08:27:34.933Z,300
2016-06-11T08:28:34.920Z,300
2016-06-11T08:29:34.985Z,300
2016-06-11T08:30:34.863Z,305
2016-06-11T08:31:35.398Z,300
2016-06-11T08:32:35.166Z,300
2016-06-11T08:33:35.154Z,300
2016-06-11T08:34:35.219Z,300
2016-06-11T08:35:35.301Z,300
2016-06-11T08:36:35.304Z,300
2016-06-11T08:37:35.369Z,300
2016-06-11T08:38:35.450Z,300
2016-06-11T08:39:35.470Z,300
2016-06-11T08:40:35.519Z,300
2016-06-11T08:41:35.585Z,300
2016-06-11T08:42:35.619Z,300
2016-06-11T08:43:35.700Z,300
2016-06-11T08:44:35.703Z,300
2016-06-11T08:45:36.066Z,305
2016-06-11T08:46:37.241Z,305
2016-06-11T08:47:35.869Z,305
2016-06-11T08:48:35.903Z,305
2016-06-11T08:49:36.000Z,305
2016-06-11T08:50:36.034Z,305
2016-06-11T08:51:36.053Z,310
2016-06-11T08:52:36.181Z,310
2016-06-11T08:53:36.231Z,315
2016-06-11T08:54:36.250Z,315
2016-06-11T08:55:36.269Z,320
2016-06-11T08:56:36.303Z,325
2016-06-11T08:57:36.400Z,325
2016-06-11T08:58:36.418Z,330
2016-06-11T08:59:36.453Z,335
2016-06-11T09:00:36.580Z,340
2016-06-11T09:01:37.428Z,340
2016-06-11T09:02:36.649Z,345
2016-06-11T09:03:36.683Z,350
2016-06-11T09:04:36.733Z,350
2016-06-11T09:05:36.753Z,355
2016-06-11T09:06:36.834Z,355
2016-06-11T09:07:36.898Z,360
2016-06-11T09:08:36.762Z,360
2016-06-11T09:09:36.968Z,360
2016-06-11T09:10:37.065Z,370
2016-06-11T09:11:37.068Z,365
2016-06-11T09:12:37.117Z,365
2016-06-11T09:13:37.184Z,365
2016-06-11T09:14:37.233Z,365
2016-06-11T09:15:37.111Z,365
2016-06-11T09:16:37.989Z,365
2016-06-11T09:17:37.382Z,370
2016-06-11T09:18:37.402Z,370
2016-06-11T09:19:37.499Z,370
2016-06-11T09:20:37.517Z,370
2016-06-11T09:21:37.598Z,375
2016-06-11T09:22:37.633Z,380
2016-06-11T09:23:37.683Z,380
2016-06-11T09:24:37.748Z,385
2016-06-11T09:25:37.782Z,385
2016-06-11T09:26:37.818Z,385
2016-06-11T09:27:37.945Z,390
2016-06-11T09:28:37.949Z,390
2016-06-11T09:29:37.810Z,400
2016-06-11T09:30:38.033Z,400
2016-06-11T09:31:39.880Z,400
2016-06-11T09:32:38.133Z,405
2016-06-11T09:33:38.182Z,405
2016-06-11T09:34:38.060Z,410
2016-06-11T09:35:38.298Z,410
2016-06-11T09:36:38.363Z,415
2016-06-11T09:37:38.366Z,415
2016-06-11T09:38:38.432Z,420
2016-06-11T09:39:38.529Z,420
2016-06-11T09:40:38.533Z,420
2016-06-11T09:41:38.581Z,425
2016-06-11T09:42:38.678Z,425
2016-06-11T09:43:38.682Z,425
2016-06-11T09:44:38.576Z,430
2016-06-11T09:45:38.798Z,430
2016-06-11T09:46:39.551Z,430
2016-06-11T09:47:38.772Z,435
2016-06-11T09:48:38.931Z,440
2016-06-11T09:49:38.997Z,435
2016-06-11T09:50:39.063Z,435
2016-06-11T09:51:39.097Z,435
2016-06-11T09:52:39.131Z,440
2016-06-11T09:53:39.275Z,440
2016-06-11T09:54:39.246Z,440
2016-06-11T09:55:39.281Z,435
2016-06-11T09:56:39.377Z,435
2016-06-11T09:57:39.428Z,435
2016-06-11T09:58:39.463Z,435
2016-06-11T09:59:39.496Z,435
2016-06-11T10:00:39.530Z,445
2016-06-11T10:01:40.393Z,440
2016-06-11T10:02:39.506Z,440
2016-06-11T10:03:39.712Z,440
2016-06-11T10:04:39.777Z,440
2016-06-11T10:05:39.688Z,445
2016-06-11T10:06:39.830Z,445
2016-06-11T10:07:39.927Z,450
2016-06-11T10:08:39.977Z,445
2016-06-11T10:09:39.997Z,445
2016-06-11T10:10:40.078Z,445
2016-06-11T10:11:40.111Z,445
2016-06-11T10:12:40.192Z,450
2016-06-11T10:13:40.226Z,450
2016-06-11T10:14:40.246Z,450
2016-06-11T10:15:40.343Z,455
2016-06-11T10:16:40.393Z,460
2016-06-11T10:17:40.239Z,470
2016-06-11T10:18:40.477Z,465
2016-06-11T10:19:40.543Z,470
2016-06-11T10:20:40.545Z,475
2016-06-11T10:21:40.626Z,480
2016-06-11T10:22:40.692Z,485
2016-06-11T10:23:40.710Z,490
2016-06-11T10:24:40.807Z,495
2016-06-11T10:25:40.810Z,495
2016-06-11T10:26:40.892Z,495
2016-06-11T10:27:40.957Z,495
2016-06-11T10:28:40.976Z,495
2016-06-11T10:29:41.041Z,490
2016-06-11T10:30:41.107Z,490
2016-06-11T10:31:41.267Z,490
2016-06-11T10:32:41.223Z,490
2016-06-11T10:33:41.258Z,490
2016-06-11T10:34:41.307Z,485
2016-06-11T10:35:41.326Z,485
2016-06-11T10:36:41.267Z,485
2016-06-11T10:37:41.441Z,490
2016-06-11T10:38:41.522Z,495
2016-06-11T10:39:41.542Z,500
2016-06-11T10:40:41.591Z,505
2016-06-11T10:41:41.673Z,515
2016-06-11T10:42:41.706Z,525
2016-06-11T10:43:41.741Z,535
2016-06-11T10:44:41.838Z,545
2016-06-11T10:45:41.872Z,550
2016-06-11T10:46:42.813Z,560
2016-06-11T10:47:42.581Z,570
2016-06-11T10:48:42.038Z,580
2016-06-11T10:49:42.056Z,590
2016-06-11T10:50:42.123Z,600
2016-06-11T10:51:42.203Z,610
2016-06-11T10:52:42.207Z,615
2016-06-11T10:53:42.318Z,620
2016-06-11T10:54:42.353Z,625
2016-06-11T10:55:42.388Z,635
2016-06-11T10:56:42.422Z,650
2016-06-11T10:57:42.503Z,655
2016-06-11T10:58:42.553Z,660
2016-06-11T10:59:42.571Z,670
2016-06-11T11:00:42.496Z,675
2016-06-11T11:01:43.031Z,685
2016-06-11T11:02:42.613Z,685
2016-06-11T11:03:42.787Z,690
2016-06-11T11:04:42.836Z,695
2016-06-11T11:05:42.965Z,700
2016-06-11T11:06:42.796Z,710
2016-06-11T11:07:43.003Z,720
2016-06-11T11:08:43.084Z,720
2016-06-11T11:09:42.962Z,730
2016-06-11T11:10:43.151Z,735
2016-06-11T11:11:43.249Z,745
2016-06-11T11:12:43.299Z,750
2016-06-11T11:13:43.161Z,755
2016-06-11T11:14:43.399Z,750
2016-06-11T11:15:43.417Z,755
2016-06-11T11:16:43.578Z,755
2016-06-11T11:17:43.595Z,755
2016-06-11T11:18:43.427Z,755
2016-06-11T11:19:43.665Z,755
2016-06-11T11:20:43.715Z,760
2016-06-11T11:21:43.749Z,760
2016-06-11T11:22:43.814Z,760
2016-06-11T11:23:43.739Z,760
2016-06-11T11:24:43.914Z,760
2016-06-11T11:25:43.980Z,765
2016-06-11T11:26:44.076Z,770
2016-06-11T11:27:44.079Z,765
2016-06-11T11:28:44.145Z,765
2016-06-11T11:29:44.164Z,765
2016-06-11T11:30:44.261Z,770
2016-06-11T11:31:45.170Z,770
2016-06-11T11:32:45.345Z,765
2016-06-11T11:33:44.411Z,770
2016-06-11T11:34:44.319Z,770
2016-06-11T11:35:44.511Z,770
2016-06-11T11:36:44.389Z,770
2016-06-11T11:37:44.641Z,775
2016-06-11T11:38:44.676Z,770
2016-06-11T11:39:44.711Z,770
2016-06-11T11:40:44.791Z,770
2016-06-11T11:41:44.841Z,770
2016-06-11T11:42:44.923Z,770
2016-06-11T11:43:44.800Z,770
2016-06-11T11:44:44.834Z,770
2016-06-11T11:45:45.088Z,765
2016-06-11T11:46:45.137Z,765
2016-06-11T11:47:45.329Z,760
2016-06-11T11:48:45.254Z,755
2016-06-11T11:49:45.131Z,755
2016-06-11T11:50:45.307Z,755
2016-06-11T11:51:45.388Z,755
2016-06-11T11:52:45.453Z,750
2016-06-11T11:53:45.644Z,745
2016-06-11T11:54:45.553Z,750
2016-06-11T11:55:45.587Z,750
2016-06-11T11:56:45.684Z,745
2016-06-11T11:57:45.718Z,745
2016-06-11T11:58:45.752Z,740
2016-06-11T11:59:45.835Z,735
2016-06-11T12:00:45.900Z,740
2016-06-11T12:01:46.200Z,735
2016-06-11T12:02:45.844Z,750
2016-06-11T12:03:46.081Z,755
2016-06-11T12:04:46.099Z,765
2016-06-11T12:05:46.149Z,770
2016-06-11T12:06:46.199Z,775
2016-06-11T12:07:46.124Z,780
2016-06-11T12:08:46.330Z,790
2016-06-11T12:09:46.350Z,805
2016-06-11T12:10:46.430Z,815
2016-06-11T12:11:46.496Z,825
2016-06-11T12:12:46.531Z,835
2016-06-11T12:13:46.581Z,850
2016-06-11T12:14:46.676Z,855
2016-06-11T12:15:46.712Z,870
2016-06-11T12:16:46.605Z,875
2016-06-11T12:17:47.093Z,905
2016-06-11T12:18:46.861Z,880
2016-06-11T12:19:46.927Z,845
2016-06-11T12:20:46.945Z,875
2016-06-11T12:21:47.027Z,940
2016-06-11T12:22:47.108Z,1040
2016-06-11T12:23:47.126Z,935
2016-06-11T12:24:47.177Z,865
2016-06-11T12:25:47.273Z,800
2016-06-11T12:26:47.308Z,770
2016-06-11T12:27:47.342Z,925
2016-06-11T12:28:47.469Z,715
2016-06-11T12:29:47.489Z,665
2016-06-11T12:30:47.523Z,645
2016-06-11T12:31:47.839Z,630
2016-06-11T12:32:47.779Z,620
2016-06-11T12:33:47.689Z,610
2016-06-11T12:34:47.771Z,600
2016-06-11T12:35:47.836Z,605
2016-06-11T12:36:47.838Z,605
2016-06-11T12:37:47.904Z,605
2016-06-11T12:38:48.000Z,610
2016-06-11T12:39:48.020Z,620
2016-06-11T12:40:48.086Z,635
2016-06-11T12:41:48.151Z,645
2016-06-11T12:42:48.201Z,665
2016-06-11T12:43:48.220Z,665
2016-06-11T12:44:48.316Z,680
2016-06-11T12:45:48.351Z,680
2016-06-11T12:46:48.588Z,695
2016-06-11T12:47:48.903Z,700
2016-06-11T12:48:48.500Z,740
2016-06-11T12:49:48.598Z,775
2016-06-11T12:50:48.491Z,750
2016-06-11T12:51:48.651Z,885
2016-06-11T12:52:48.763Z,880
2016-06-11T12:53:48.860Z,775
2016-06-11T12:54:48.816Z,725
2016-06-11T12:55:48.913Z,740
2016-06-11T12:56:48.963Z,735
2016-06-11T12:57:49.013Z,740
2016-06-11T12:58:49.062Z,760
2016-06-11T12:59:49.113Z,780
2016-06-11T13:00:49.193Z,770
2016-06-11T13:01:49.087Z,740
2016-06-11T13:02:49.919Z,730
2016-06-11T13:03:49.218Z,730
2016-06-11T13:04:49.410Z,730
2016-06-11T13:05:49.427Z,735
2016-06-11T13:06:49.509Z,740
2016-06-11T13:07:49.575Z,745
2016-06-11T13:08:49.609Z,750
2016-06-11T13:09:49.659Z,765
2016-06-11T13:10:49.724Z,780
2016-06-11T13:11:49.790Z,795
2016-06-11T13:12:49.840Z,810
2016-06-11T13:13:49.874Z,830
2016-06-11T13:14:49.784Z,870
2016-06-11T13:15:50.036Z,860
2016-06-11T13:16:50.039Z,850
2016-06-11T13:17:50.449Z,830
2016-06-11T13:18:50.062Z,840
2016-06-11T13:19:50.221Z,865
2016-06-11T13:20:50.255Z,860
2016-06-11T13:21:50.368Z,820
2016-06-11T13:22:50.371Z,760
2016-06-11T13:23:50.452Z,755
2016-06-11T13:24:50.486Z,755
2016-06-11T13:25:50.536Z,760
2016-06-11T13:26:50.634Z,770
2016-06-11T13:27:50.636Z,780
2016-06-11T13:28:50.686Z,795
2016-06-11T13:29:50.782Z,815
2016-06-11T13:30:50.801Z,830
2016-06-11T13:31:51.852Z,845
2016-06-11T13:32:51.558Z,865
2016-06-11T13:33:50.983Z,910
2016-06-11T13:34:51.017Z,930
2016-06-11T13:35:51.114Z,935
2016-06-11T13:36:51.148Z,935
2016-06-11T13:37:50.917Z,940
2016-06-11T13:38:51.248Z,925
2016-06-11T13:39:51.298Z,935
2016-06-11T13:40:51.239Z,940
2016-06-11T13:41:51.460Z,945
2016-06-11T13:42:51.464Z,905
2016-06-11T13:43:51.545Z,915
2016-06-11T13:44:51.611Z,940
2016-06-11T13:45:51.628Z,925
2016-06-11T13:46:51.789Z,945
2016-06-11T13:47:52.713Z,1000
2016-06-11T13:48:51.654Z,1015
2016-06-11T13:49:51.876Z,1020
2016-06-11T13:50:51.910Z,945
2016-06-11T13:51:51.991Z,925
2016-06-11T13:52:52.057Z,930
2016-06-11T13:53:52.122Z,945
2016-06-11T13:54:52.156Z,955
2016-06-11T13:55:52.223Z,960
2016-06-11T13:56:52.240Z,955
2016-06-11T13:57:52.306Z,1000
2016-06-11T13:58:52.404Z,1260
2016-06-11T13:59:52.407Z,1330
2016-06-11T14:00:52.472Z,1035
2016-06-11T14:01:52.413Z,1040
2016-06-11T14:02:53.525Z,965
2016-06-11T14:03:52.512Z,910